Terminal Aerodrome Forecast
Issued by NWS Huntsville, AL

Home | Current Version | Previous Version | Text Only | Print | Product List | Glossary On
Versions: 1 2 3 4 5 6 7 8 9 10 11 12 13 14 15 16 17 18 19 20 21 22 23 24 25 26
000
FTUS44 KHUN 290522
TAFMSL
TAF
KMSL 290522Z 2906/3006 VRB03KT P6SM SCT050 BKN090
     FM291400 14007KT P6SM SCT035 BKN050
     FM291900 16009KT P6SM VCSH SCT025 BKN040
     FM300000 VRB03KT P6SM SCT040 BKN100=

USA.gov is the U.S. government's official web portal to all federal, state and local government web resources and services.